createdAt,value
2023-04-21T00:01:02.518Z,15.13
2023-04-21T00:03:30.298Z,14.88
2023-04-21T00:05:58.683Z,15.85
2023-04-21T00:08:26.964Z,15.02
2023-04-21T00:10:53.541Z,15.02
2023-04-21T00:13:20.115Z,15.80
2023-04-21T00:15:46.697Z,15.27
2023-04-21T00:18:13.538Z,14.75
2023-04-21T00:20:40.131Z,16.08
2023-04-21T00:23:06.627Z,15.35
2023-04-21T00:25:33.147Z,15.77
2023-04-21T00:27:59.651Z,14.35
2023-04-21T00:30:26.239Z,14.63
2023-04-21T00:32:52.727Z,14.65
2023-04-21T00:35:19.252Z,14.40
2023-04-21T00:37:45.802Z,14.35
2023-04-21T00:40:13.469Z,15.13
2023-04-21T00:42:40.552Z,14.30
2023-04-21T00:45:07.607Z,15.65
2023-04-21T00:47:34.113Z,15.88
2023-04-21T00:50:00.950Z,15.35
2023-04-21T00:52:28.116Z,15.80
2023-04-21T00:54:55.463Z,15.98
2023-04-21T00:57:22.279Z,16.48
2023-04-21T00:59:49.796Z,16.05
2023-04-21T01:02:18.553Z,16.13
2023-04-21T01:04:47.912Z,16.48
2023-04-21T01:07:14.467Z,14.13
2023-04-21T01:09:40.998Z,16.35
2023-04-21T01:12:09.855Z,16.73
2023-04-21T01:14:37.666Z,17.10
2023-04-21T01:17:07.892Z,16.52
2023-04-21T01:19:41.816Z,15.20
2023-04-21T01:22:12.283Z,16.38
2023-04-21T01:24:44.574Z,16.10
2023-04-21T01:27:21.192Z,16.95
2023-04-21T01:29:50.417Z,16.67
2023-04-21T01:32:19.431Z,16.98
2023-04-21T01:34:47.154Z,16.45
2023-04-21T01:37:16.799Z,16.25
2023-04-21T01:39:46.696Z,16.10
2023-04-21T01:42:14.092Z,16.20
2023-04-21T01:44:41.908Z,14.95
2023-04-21T01:47:09.791Z,15.32
2023-04-21T01:49:36.361Z,14.45
2023-04-21T01:52:02.919Z,15.43
2023-04-21T01:54:29.644Z,15.85
2023-04-21T01:56:56.304Z,15.82
2023-04-21T01:59:22.956Z,15.02
2023-04-21T02:01:49.975Z,16.38
2023-04-21T02:04:16.593Z,15.55
2023-04-21T02:06:43.344Z,16.23
2023-04-21T02:09:10.201Z,15.10
2023-04-21T02:11:36.907Z,15.02
2023-04-21T02:14:03.664Z,14.63
2023-04-21T02:16:30.236Z,14.63
2023-04-21T02:18:57.403Z,15.50
2023-04-21T02:21:24.638Z,15.75
2023-04-21T02:23:51.795Z,15.02
2023-04-21T02:26:18.998Z,15.48
2023-04-21T02:28:45.612Z,14.93
2023-04-21T02:31:15.426Z,15.32
2023-04-21T02:33:42.010Z,14.18
2023-04-21T02:36:11.397Z,14.45
2023-04-21T02:38:37.873Z,15.70
2023-04-21T02:41:04.387Z,14.75
2023-04-21T02:43:30.884Z,14.63
2023-04-21T02:45:57.393Z,14.02
2023-04-21T02:48:23.897Z,14.32
2023-04-21T02:50:53.253Z,13.82
2023-04-21T02:53:20.889Z,14.77
2023-04-21T02:55:47.532Z,14.50
2023-04-21T02:58:14.054Z,14.85
2023-04-21T03:00:41.573Z,14.95
2023-04-21T03:03:08.601Z,15.35
2023-04-21T03:05:35.338Z,16.15
2023-04-21T03:08:01.917Z,15.35
2023-04-21T03:10:28.414Z,16.70
2023-04-21T03:12:56.278Z,15.27
2023-04-21T03:15:23.911Z,16.23
2023-04-21T03:17:50.703Z,15.63
2023-04-21T03:20:17.847Z,16.27
2023-04-21T03:22:44.457Z,15.48
2023-04-21T03:25:11.994Z,15.15
2023-04-21T03:27:38.524Z,16.00
2023-04-21T03:30:06.673Z,15.13
2023-04-21T03:32:33.377Z,15.18
2023-04-21T03:34:59.973Z,15.40
2023-04-21T03:37:26.518Z,15.65
2023-04-21T03:39:53.226Z,15.85
2023-04-21T03:42:20.174Z,16.73
2023-04-21T03:44:46.673Z,16.90
2023-04-21T03:47:13.179Z,17.52
2023-04-21T03:49:39.672Z,17.13
2023-04-21T03:52:06.122Z,15.70
2023-04-21T03:54:32.690Z,15.82
2023-04-21T03:56:59.246Z,16.55
2023-04-21T03:59:25.994Z,16.90
2023-04-21T04:01:52.517Z,15.05
2023-04-21T04:04:19.079Z,15.27
2023-04-21T04:06:45.787Z,14.60
2023-04-21T04:09:12.265Z,15.70
2023-04-21T04:11:38.777Z,15.75
2023-04-21T04:14:05.297Z,15.70
2023-04-21T04:16:34.366Z,15.73
2023-04-21T04:19:01.437Z,15.32
2023-04-21T04:21:28.542Z,16.85
2023-04-21T04:23:55.532Z,16.75
2023-04-21T04:26:24.784Z,16.05
2023-04-21T04:28:56.202Z,15.68
2023-04-21T04:31:25.476Z,19.33
2023-04-21T04:33:54.982Z,16.98
2023-04-21T04:36:22.679Z,16.83
2023-04-21T04:38:49.166Z,16.67
2023-04-21T04:41:16.679Z,16.25
2023-04-21T04:43:43.935Z,16.42
2023-04-21T04:46:12.899Z,15.13
2023-04-21T04:48:39.878Z,15.40
2023-04-21T04:51:06.381Z,15.25
2023-04-21T04:53:33.014Z,15.63
2023-04-21T04:55:59.515Z,15.40
2023-04-21T04:58:26.045Z,15.45
2023-04-21T05:00:52.552Z,15.82
2023-04-21T05:03:19.249Z,18.33
2023-04-21T05:05:46.254Z,16.02
2023-04-21T05:08:13.251Z,17.33
2023-04-21T05:10:40.296Z,16.90
2023-04-21T05:13:06.819Z,17.95
2023-04-21T05:15:33.321Z,18.55
2023-04-21T05:17:59.921Z,17.73
2023-04-21T05:20:26.425Z,17.05
2023-04-21T05:22:52.905Z,16.67
2023-04-21T05:25:19.378Z,16.15
2023-04-21T05:27:45.852Z,17.52
2023-04-21T05:30:12.407Z,18.05
2023-04-21T05:32:39.024Z,17.58
2023-04-21T05:35:06.241Z,19.13
2023-04-21T05:37:32.736Z,19.20
2023-04-21T05:39:59.192Z,18.85
2023-04-21T05:42:25.749Z,19.90
2023-04-21T05:44:52.256Z,18.83
2023-04-21T05:47:18.703Z,21.92
2023-04-21T05:49:50.136Z,19.08
2023-04-21T05:52:17.935Z,18.98
2023-04-21T05:54:44.597Z,19.08
2023-04-21T05:57:11.123Z,19.73
2023-04-21T05:59:37.750Z,19.20
2023-04-21T06:02:04.520Z,18.20
2023-04-21T06:04:31.367Z,18.13
2023-04-21T06:06:58.132Z,17.42
2023-04-21T06:09:24.608Z,17.73
2023-04-21T06:11:51.063Z,17.80
2023-04-21T06:14:17.713Z,17.42
2023-04-21T06:16:44.450Z,17.15
2023-04-21T06:19:11.226Z,16.63
2023-04-21T06:21:37.786Z,16.70
2023-04-21T06:24:04.491Z,15.50
2023-04-21T06:26:31.037Z,16.73
2023-04-21T06:28:57.553Z,16.10
2023-04-21T06:31:24.036Z,17.02
2023-04-21T06:33:50.502Z,16.92
2023-04-21T06:36:18.108Z,17.10
2023-04-21T06:38:44.818Z,16.90
2023-04-21T06:41:11.307Z,16.98
2023-04-21T06:43:37.848Z,14.25
2023-04-21T06:46:04.406Z,16.75
2023-04-21T06:48:31.116Z,16.25
2023-04-21T06:50:57.702Z,17.33
2023-04-21T06:53:24.352Z,16.67
2023-04-21T06:55:53.521Z,15.05
2023-04-21T06:58:21.439Z,17.38
2023-04-21T07:00:48.209Z,16.58
2023-04-21T07:03:14.935Z,14.32
2023-04-21T07:05:41.491Z,16.58
2023-04-21T07:08:08.023Z,16.45
2023-04-21T07:10:34.510Z,13.93
2023-04-21T07:13:00.979Z,15.13
2023-04-21T07:15:27.535Z,13.98
2023-04-21T07:17:54.143Z,13.38
2023-04-21T07:20:20.701Z,13.43
2023-04-21T07:22:47.167Z,13.18
2023-04-21T07:25:13.677Z,12.05
2023-04-21T07:27:40.284Z,12.32
2023-04-21T07:30:07.920Z,11.68
2023-04-21T07:32:35.100Z,11.90
2023-04-21T07:35:02.687Z,16.27
2023-04-21T07:37:29.412Z,14.45
2023-04-21T07:39:55.952Z,12.23
2023-04-21T07:42:22.587Z,11.55
2023-04-21T07:44:49.227Z,10.20
2023-04-21T07:47:15.743Z,10.57
2023-04-21T07:49:42.224Z,10.65
2023-04-21T07:52:08.882Z,9.43
2023-04-21T07:54:35.347Z,9.65
2023-04-21T07:57:02.578Z,8.85
2023-04-21T07:59:29.449Z,9.05
2023-04-21T08:01:56.469Z,8.20
2023-04-21T08:04:23.457Z,7.57
2023-04-21T08:06:50.376Z,7.95
2023-04-21T08:09:17.036Z,8.10
2023-04-21T08:11:43.629Z,8.23
2023-04-21T08:14:11.796Z,7.72
2023-04-21T08:16:38.885Z,7.25
2023-04-21T08:19:06.812Z,7.47
2023-04-21T08:21:33.513Z,8.48
2023-04-21T08:24:00.507Z,8.93
2023-04-21T08:26:27.422Z,10.07
2023-04-21T08:28:54.150Z,7.88
2023-04-21T08:31:20.803Z,7.95
2023-04-21T08:34:00.413Z,5.95
2023-04-21T08:36:29.775Z,5.68
2023-04-21T08:38:56.580Z,5.72
2023-04-21T08:41:24.430Z,5.18
2023-04-21T08:43:51.069Z,4.57
2023-04-21T08:46:18.645Z,6.82
2023-04-21T08:48:47.014Z,4.85
2023-04-21T08:51:20.923Z,4.75
2023-04-21T08:56:13.850Z,3.70
2023-04-21T08:58:41.509Z,3.85
2023-04-21T09:01:08.115Z,3.75
2023-04-21T09:03:34.932Z,3.85
2023-04-21T09:06:05.475Z,3.55
2023-04-21T09:08:34.440Z,3.13
2023-04-21T09:11:01.688Z,3.53
2023-04-21T09:13:36.421Z,3.38
2023-04-21T09:16:16.319Z,2.72
2023-04-21T09:18:44.264Z,3.08
2023-04-21T09:21:13.634Z,3.35
2023-04-21T09:23:43.766Z,3.58
2023-04-21T09:26:11.033Z,3.28
2023-04-21T09:28:41.046Z,2.63
2023-04-21T09:31:18.004Z,2.70
2023-04-21T09:33:57.048Z,2.80
2023-04-21T09:36:29.274Z,2.50
2023-04-21T09:39:15.453Z,2.40
2023-04-21T09:41:44.234Z,2.30
2023-04-21T09:44:10.846Z,2.17
2023-04-21T09:46:37.958Z,1.67
2023-04-21T09:49:05.696Z,2.10
2023-04-21T09:51:56.227Z,1.70
2023-04-21T09:54:29.835Z,1.85
2023-04-21T09:57:02.702Z,1.60
2023-04-21T09:59:36.164Z,1.73
2023-04-21T10:02:07.263Z,1.52
2023-04-21T10:04:36.352Z,1.40
2023-04-21T10:07:03.323Z,1.30
2023-04-21T10:09:45.344Z,1.35
2023-04-21T10:12:14.038Z,1.27
2023-04-21T10:14:40.810Z,0.90
2023-04-21T10:17:12.984Z,1.88
2023-04-21T10:19:50.114Z,1.10
2023-04-21T10:22:27.691Z,1.00
2023-04-21T10:24:56.396Z,1.13
2023-04-21T10:27:45.587Z,1.10
2023-04-21T10:30:22.812Z,1.08
2023-04-21T10:33:01.692Z,1.00
2023-04-21T10:35:59.929Z,0.98
2023-04-21T10:38:34.943Z,1.13
2023-04-21T10:41:32.273Z,0.90
2023-04-21T10:44:12.429Z,1.27
2023-04-21T10:46:50.648Z,0.80
2023-04-21T10:49:30.494Z,0.90
2023-04-21T10:52:00.304Z,0.95
2023-04-21T10:54:27.675Z,0.98
2023-04-21T10:56:59.187Z,0.93
2023-04-21T10:59:27.167Z,0.90
2023-04-21T11:01:54.580Z,1.27
2023-04-21T11:04:23.095Z,1.50
2023-04-21T11:07:10.613Z,1.80
2023-04-21T11:09:38.330Z,1.15
2023-04-21T11:12:07.429Z,1.17
2023-04-21T11:14:36.436Z,1.45
2023-04-21T11:17:04.723Z,1.42
2023-04-21T11:19:34.242Z,0.93
2023-04-21T11:22:00.911Z,0.82
2023-04-21T11:24:27.436Z,0.88
2023-04-21T11:26:53.915Z,0.73
2023-04-21T11:29:20.393Z,0.90
2023-04-21T11:31:48.979Z,0.70
2023-04-21T11:34:17.107Z,0.90
2023-04-21T11:36:44.995Z,1.08
2023-04-21T11:39:15.602Z,1.00
2023-04-21T11:41:47.785Z,0.90
2023-04-21T11:44:30.316Z,0.90
2023-04-21T11:46:56.848Z,0.75
2023-04-21T11:49:27.887Z,0.73
2023-04-21T11:51:54.413Z,0.63
2023-04-21T11:54:22.617Z,1.20
2023-04-21T11:56:49.194Z,0.90
2023-04-21T11:59:19.469Z,1.15
2023-04-21T12:01:50.981Z,1.00
2023-04-21T12:04:21.334Z,0.88
2023-04-21T12:06:57.686Z,1.02
2023-04-21T12:09:24.164Z,1.80
2023-04-21T12:11:52.843Z,1.30
2023-04-21T12:14:21.281Z,0.80
2023-04-21T12:16:55.853Z,1.23
2023-04-21T12:19:42.276Z,1.10
2023-04-21T12:22:09.433Z,1.05
2023-04-21T12:24:36.912Z,1.10
2023-04-21T12:27:03.942Z,1.30
2023-04-21T12:29:30.479Z,1.67
2023-04-21T12:31:57.009Z,1.45
2023-04-21T12:34:23.553Z,2.10
2023-04-21T12:36:50.075Z,2.28
2023-04-21T12:39:18.800Z,2.60
2023-04-21T12:41:47.360Z,2.20
2023-04-21T12:44:14.665Z,2.10
2023-04-21T12:46:41.554Z,4.00
2023-04-21T12:49:08.997Z,3.45
2023-04-21T12:51:35.685Z,2.20
2023-04-21T12:54:02.499Z,1.88
2023-04-21T12:56:29.753Z,1.90
2023-04-21T12:58:56.290Z,12.25
2023-04-21T13:01:24.227Z,3.00
2023-04-21T13:03:51.035Z,2.67
2023-04-21T13:06:17.705Z,2.20
2023-04-21T13:08:44.174Z,2.85
2023-04-21T13:11:10.933Z,2.20
2023-04-21T13:13:37.677Z,2.30
2023-04-21T13:16:05.026Z,2.80
2023-04-21T13:18:31.512Z,2.88
2023-04-21T13:20:58.076Z,2.40
2023-04-21T13:23:24.582Z,3.13
2023-04-21T13:25:51.830Z,3.30
2023-04-21T13:28:19.342Z,3.60
2023-04-21T13:30:46.444Z,3.72
2023-04-21T13:33:13.114Z,3.72
2023-04-21T13:35:39.670Z,3.85
2023-04-21T13:38:06.357Z,2.90
2023-04-21T13:40:32.858Z,4.88
2023-04-21T13:42:59.612Z,4.13
2023-04-21T13:45:26.626Z,3.72
2023-04-21T13:47:54.076Z,3.70
2023-04-21T13:50:21.362Z,4.00
2023-04-21T13:52:48.291Z,4.43
2023-04-21T13:55:14.817Z,4.13
2023-04-21T13:57:41.318Z,4.07
2023-04-21T14:00:11.831Z,3.78
2023-04-21T14:02:39.882Z,4.00
2023-04-21T14:05:07.062Z,8.20
2023-04-21T14:07:34.921Z,6.07
2023-04-21T14:10:01.910Z,4.85
2023-04-21T14:12:28.777Z,28.58
2023-04-21T14:14:55.314Z,6.90
2023-04-21T14:17:23.142Z,12.32
2023-04-21T14:19:49.987Z,8.75
2023-04-21T14:22:16.950Z,4.20
2023-04-21T14:24:43.546Z,6.22
2023-04-21T14:27:10.620Z,4.68
2023-04-21T14:29:37.174Z,3.70
2023-04-21T14:32:03.839Z,3.60
2023-04-21T14:34:30.463Z,3.85
2023-04-21T14:36:57.057Z,4.18
2023-04-21T14:39:23.989Z,4.20
2023-04-21T14:41:50.403Z,5.03
2023-04-21T14:44:18.856Z,4.60
2023-04-21T14:46:50.796Z,4.30
2023-04-21T14:49:27.964Z,3.75
2023-04-21T14:51:54.568Z,4.07
2023-04-21T14:54:21.089Z,3.90
2023-04-21T14:56:47.605Z,3.80
2023-04-21T14:59:14.101Z,3.78
2023-04-21T15:01:40.842Z,3.78
2023-04-21T15:04:07.715Z,3.30
2023-04-21T15:06:34.480Z,3.92
2023-04-21T15:09:01.097Z,3.33
2023-04-21T15:11:27.647Z,3.83
2023-04-21T15:13:54.143Z,3.85
2023-04-21T15:16:20.749Z,4.00
2023-04-21T15:18:47.279Z,3.30
2023-04-21T15:21:13.844Z,3.72
2023-04-21T15:23:40.323Z,4.20
2023-04-21T15:26:06.868Z,3.70
2023-04-21T15:28:33.340Z,3.85
2023-04-21T15:31:00.009Z,3.83
2023-04-21T15:33:26.730Z,3.25
2023-04-21T15:35:53.254Z,3.33
2023-04-21T15:38:21.137Z,3.90
2023-04-21T15:41:00.111Z,4.15
2023-04-21T15:43:27.440Z,4.40
2023-04-21T15:45:54.044Z,4.30
2023-04-21T15:48:22.204Z,5.10
2023-04-21T15:50:49.027Z,4.40
2023-04-21T15:53:16.698Z,5.45
2023-04-21T15:55:45.135Z,5.40
2023-04-21T15:58:13.532Z,4.55
2023-04-21T16:00:43.283Z,4.28
2023-04-21T16:03:09.991Z,2.88
2023-04-21T16:05:36.717Z,2.90
2023-04-21T16:08:03.388Z,2.65
2023-04-21T16:10:29.917Z,2.63
2023-04-21T16:12:56.733Z,2.80
2023-04-21T16:15:24.932Z,2.10
2023-04-21T16:17:52.533Z,2.13
2023-04-21T16:20:19.325Z,2.17
2023-04-21T16:22:45.963Z,1.85
2023-04-21T16:25:13.836Z,1.63
2023-04-21T16:27:40.724Z,1.50
2023-04-21T16:30:08.576Z,1.35
2023-04-21T16:32:35.757Z,1.35
2023-04-21T16:35:09.928Z,1.50
2023-04-21T16:37:38.231Z,1.40
2023-04-21T16:40:08.449Z,1.27
2023-04-21T16:42:36.909Z,1.42
2023-04-21T16:45:04.838Z,1.45
2023-04-21T16:47:40.399Z,1.80
2023-04-21T16:50:08.918Z,1.95
2023-04-21T16:52:35.468Z,1.98
2023-04-21T16:55:02.012Z,1.65
2023-04-21T16:57:29.722Z,1.60
2023-04-21T16:59:56.243Z,1.70
2023-04-21T17:02:23.147Z,1.67
2023-04-21T17:04:49.767Z,1.90
2023-04-21T17:07:16.501Z,1.73
2023-04-21T17:09:43.058Z,1.92
2023-04-21T17:12:09.566Z,1.80
2023-04-21T17:14:36.918Z,1.70
2023-04-21T17:17:03.837Z,1.73
2023-04-21T17:19:30.705Z,1.70
2023-04-21T17:21:57.252Z,4.20
2023-04-21T17:24:23.943Z,2.67
2023-04-21T17:26:50.527Z,2.10
2023-04-21T17:29:17.134Z,2.20
2023-04-21T17:31:43.711Z,2.42
2023-04-21T17:34:10.354Z,2.40
2023-04-21T17:36:39.398Z,2.15
2023-04-21T17:39:06.532Z,2.30
2023-04-21T17:41:33.147Z,2.72
2023-04-21T17:44:00.916Z,2.70
2023-04-21T17:46:27.580Z,2.38
2023-04-21T17:48:54.294Z,2.30
2023-04-21T17:51:20.814Z,2.30
2023-04-21T17:53:47.302Z,7.28
2023-04-21T17:56:14.481Z,3.30
2023-04-21T17:58:42.355Z,2.38
2023-04-21T18:01:08.957Z,2.10
2023-04-21T18:03:41.326Z,2.17
2023-04-21T18:06:10.629Z,2.13
2023-04-21T18:08:37.919Z,2.10
2023-04-21T18:11:04.502Z,2.45
2023-04-21T18:13:31.077Z,2.05
2023-04-21T18:15:57.949Z,6.20
2023-04-21T18:18:25.578Z,5.85
2023-04-21T18:20:52.234Z,2.40
2023-04-21T18:23:18.710Z,2.35
2023-04-21T18:25:46.504Z,2.90
2023-04-21T18:28:13.275Z,3.22
2023-04-21T18:30:40.452Z,3.20
2023-04-21T18:33:07.253Z,4.30
2023-04-21T18:35:34.028Z,3.60
2023-04-21T18:38:01.141Z,3.22
2023-04-21T18:40:27.942Z,3.45
2023-04-21T18:42:54.549Z,2.95
2023-04-21T18:45:21.078Z,5.78
2023-04-21T18:47:47.723Z,48.13
2023-04-21T18:50:14.341Z,21.63
2023-04-21T18:52:40.915Z,7.80
2023-04-21T18:55:07.740Z,3.75
2023-04-21T18:57:34.235Z,3.95
2023-04-21T19:00:00.797Z,3.50
2023-04-21T19:02:29.064Z,3.72
2023-04-21T19:04:55.980Z,3.97
2023-04-21T19:07:22.586Z,4.13
2023-04-21T19:09:49.179Z,3.75
2023-04-21T19:12:16.471Z,5.70
2023-04-21T19:14:47.633Z,6.57
2023-04-21T19:17:15.103Z,7.63
2023-04-21T19:19:42.148Z,11.30
2023-04-21T19:22:08.655Z,13.40
2023-04-21T19:24:35.744Z,18.67
2023-04-21T19:27:03.558Z,7.50
2023-04-21T19:29:31.304Z,18.15
2023-04-21T19:31:58.580Z,31.17
2023-04-21T19:34:25.117Z,10.00
2023-04-21T19:36:52.839Z,12.65
2023-04-21T19:39:19.453Z,5.10
2023-04-21T19:41:46.079Z,4.03
2023-04-21T19:44:12.899Z,5.63
2023-04-21T19:49:11.386Z,7.30
2023-04-21T19:51:37.860Z,4.57
2023-04-21T19:54:11.404Z,3.70
2023-04-21T19:56:39.292Z,2.80
2023-04-21T19:59:05.917Z,2.90
2023-04-21T20:01:33.543Z,3.03
2023-04-21T20:04:00.458Z,3.05
2023-04-21T20:06:27.535Z,8.45
2023-04-21T20:08:54.052Z,9.30
2023-04-21T20:11:21.116Z,3.33
2023-04-21T20:13:47.908Z,3.20
2023-04-21T20:16:14.490Z,3.25
2023-04-21T20:18:41.835Z,4.18
2023-04-21T20:21:08.411Z,3.47
2023-04-21T20:23:34.894Z,4.20
2023-04-21T20:26:01.669Z,3.78
2023-04-21T20:28:28.248Z,4.70
2023-04-21T20:30:56.798Z,4.45
2023-04-21T20:33:23.273Z,4.45
2023-04-21T20:35:49.847Z,4.28
2023-04-21T20:38:16.428Z,4.38
2023-04-21T20:40:43.094Z,6.15
2023-04-21T20:43:10.307Z,4.47
2023-04-21T20:45:37.745Z,4.40
2023-04-21T20:48:04.791Z,3.75
2023-04-21T20:50:31.363Z,4.25
2023-04-21T20:52:58.154Z,4.00
2023-04-21T20:55:24.793Z,3.75
2023-04-21T20:57:51.311Z,4.25
2023-04-21T21:00:18.001Z,4.25
2023-04-21T21:02:45.558Z,3.70
2023-04-21T21:05:12.179Z,4.28
2023-04-21T21:07:39.116Z,4.70
2023-04-21T21:10:06.237Z,4.55
2023-04-21T21:12:32.815Z,4.88
2023-04-21T21:14:59.331Z,4.25
2023-04-21T21:17:25.841Z,3.53
2023-04-21T21:19:52.369Z,3.10
2023-04-21T21:22:18.865Z,3.00
2023-04-21T21:24:46.484Z,3.28
2023-04-21T21:27:13.045Z,3.47
2023-04-21T21:29:39.819Z,8.07
2023-04-21T21:32:06.769Z,3.55
2023-04-21T21:34:33.407Z,3.75
2023-04-21T21:37:00.098Z,4.05
2023-04-21T21:39:26.914Z,3.22
2023-04-21T21:41:53.433Z,3.58
2023-04-21T21:44:21.282Z,2.92
2023-04-21T21:46:50.018Z,3.65
2023-04-21T21:49:16.571Z,3.30
2023-04-21T21:51:43.091Z,2.75
2023-04-21T21:54:09.573Z,3.28
2023-04-21T21:56:36.652Z,3.08
2023-04-21T21:59:03.299Z,3.00
2023-04-21T22:01:29.886Z,3.15
2023-04-21T22:03:56.633Z,2.47
2023-04-21T22:06:24.438Z,3.22
2023-04-21T22:08:51.344Z,2.80
2023-04-21T22:11:19.724Z,2.72
2023-04-21T22:13:46.837Z,2.85
2023-04-21T22:16:13.397Z,2.90
2023-04-21T22:18:40.096Z,2.67
2023-04-21T22:21:06.655Z,2.90
2023-04-21T22:23:33.159Z,2.75
2023-04-21T22:25:59.749Z,2.45
2023-04-21T22:28:26.254Z,2.28
2023-04-21T22:30:52.879Z,2.17
2023-04-21T22:33:19.367Z,2.65
2023-04-21T22:35:45.932Z,2.40
2023-04-21T22:38:12.432Z,2.38
2023-04-21T22:40:38.957Z,2.30
2023-04-21T22:43:05.764Z,2.45
2023-04-21T22:45:32.376Z,2.35
2023-04-21T22:47:59.041Z,2.92
2023-04-21T22:50:25.681Z,2.28
2023-04-21T22:52:52.254Z,2.05
2023-04-21T22:55:18.989Z,2.40
2023-04-21T22:57:45.597Z,2.03
2023-04-21T23:00:12.486Z,2.10
2023-04-21T23:02:39.223Z,2.40
2023-04-21T23:05:06.421Z,2.88
2023-04-21T23:07:33.319Z,2.60
2023-04-21T23:09:59.764Z,2.25
2023-04-21T23:12:26.354Z,2.60
2023-04-21T23:14:53.131Z,2.88
2023-04-21T23:17:19.635Z,2.88
2023-04-21T23:19:46.371Z,2.83
2023-04-21T23:22:12.900Z,2.90
2023-04-21T23:24:39.357Z,3.05
2023-04-21T23:27:05.863Z,2.50
2023-04-21T23:29:32.505Z,4.18
2023-04-21T23:31:59.086Z,3.67
2023-04-21T23:34:25.614Z,3.55
2023-04-21T23:36:52.061Z,2.90
2023-04-21T23:39:21.425Z,3.58
2023-04-21T23:41:48.037Z,3.00
2023-04-21T23:44:14.697Z,2.95
2023-04-21T23:46:41.631Z,2.60
2023-04-21T23:49:08.238Z,2.55
2023-04-21T23:51:34.778Z,2.58
2023-04-21T23:54:02.077Z,2.70
2023-04-21T23:56:28.982Z,2.75
2023-04-21T23:58:55.573Z,2.70
